sensor_id;sensor_type;location;lat;lon;timestamp;temperature;humidity
13697;DHT22;6920;50.080;8.226;2023-05-31T00:01:36;17.80;90.30
13697;DHT22;6920;50.080;8.226;2023-05-31T00:04:03;17.80;90.40
13697;DHT22;6920;50.080;8.226;2023-05-31T00:06:30;17.80;90.30
13697;DHT22;6920;50.080;8.226;2023-05-31T00:08:57;17.90;90.40
13697;DHT22;6920;50.080;8.226;2023-05-31T00:11:24;17.80;90.20
13697;DHT22;6920;50.080;8.226;2023-05-31T00:13:53;17.80;90.30
13697;DHT22;6920;50.080;8.226;2023-05-31T00:16:21;17.80;90.40
13697;DHT22;6920;50.080;8.226;2023-05-31T00:18:51;17.80;90.20
13697;DHT22;6920;50.080;8.226;2023-05-31T00:21:19;17.80;90.30
13697;DHT22;6920;50.080;8.226;2023-05-31T00:23:48;17.80;90.40
13697;DHT22;6920;50.080;8.226;2023-05-31T00:26:15;17.80;90.30
13697;DHT22;6920;50.080;8.226;2023-05-31T00:28:42;17.70;90.40
13697;DHT22;6920;50.080;8.226;2023-05-31T00:31:10;17.70;90.30
13697;DHT22;6920;50.080;8.226;2023-05-31T00:38:35;17.70;90.50
13697;DHT22;6920;50.080;8.226;2023-05-31T00:43:29;17.70;90.70
13697;DHT22;6920;50.080;8.226;2023-05-31T00:45:56;17.60;90.60
13697;DHT22;6920;50.080;8.226;2023-05-31T00:48:25;17.60;90.70
13697;DHT22;6920;50.080;8.226;2023-05-31T00:50:52;17.60;90.80
13697;DHT22;6920;50.080;8.226;2023-05-31T00:53:20;17.60;90.70
13697;DHT22;6920;50.080;8.226;2023-05-31T00:55:48;17.60;90.70
13697;DHT22;6920;50.080;8.226;2023-05-31T00:58:16;17.50;90.70
13697;DHT22;6920;50.080;8.226;2023-05-31T01:00:43;17.50;90.80
13697;DHT22;6920;50.080;8.226;2023-05-31T01:03:11;17.50;90.80
13697;DHT22;6920;50.080;8.226;2023-05-31T01:05:40;17.50;90.80
13697;DHT22;6920;50.080;8.226;2023-05-31T01:08:07;17.50;90.90
13697;DHT22;6920;50.080;8.226;2023-05-31T01:10:34;17.40;91.20
13697;DHT22;6920;50.080;8.226;2023-05-31T01:13:05;17.40;91.00
13697;DHT22;6920;50.080;8.226;2023-05-31T01:15:37;17.50;91.30
13697;DHT22;6920;50.080;8.226;2023-05-31T01:18:12;17.90;91.30
13697;DHT22;6920;50.080;8.226;2023-05-31T01:24:15;17.40;91.00
13697;DHT22;6920;50.080;8.226;2023-05-31T01:26:49;17.40;91.00
13697;DHT22;6920;50.080;8.226;2023-05-31T01:29:18;17.40;91.10
13697;DHT22;6920;50.080;8.226;2023-05-31T01:31:47;17.30;91.00
13697;DHT22;6920;50.080;8.226;2023-05-31T01:34:15;17.40;91.10
13697;DHT22;6920;50.080;8.226;2023-05-31T01:36:42;17.30;91.00
13697;DHT22;6920;50.080;8.226;2023-05-31T01:39:10;17.40;91.10
13697;DHT22;6920;50.080;8.226;2023-05-31T01:41:39;17.40;90.90
13697;DHT22;6920;50.080;8.226;2023-05-31T01:44:10;17.30;91.00
13697;DHT22;6920;50.080;8.226;2023-05-31T01:46:38;17.30;91.00
13697;DHT22;6920;50.080;8.226;2023-05-31T01:49:10;17.30;91.00
13697;DHT22;6920;50.080;8.226;2023-05-31T01:51:40;17.20;91.30
13697;DHT22;6920;50.080;8.226;2023-05-31T01:54:09;17.20;91.10
13697;DHT22;6920;50.080;8.226;2023-05-31T01:56:36;17.20;91.10
13697;DHT22;6920;50.080;8.226;2023-05-31T02:01:33;17.30;91.10
13697;DHT22;6920;50.080;8.226;2023-05-31T02:06:28;17.20;91.20
13697;DHT22;6920;50.080;8.226;2023-05-31T02:08:55;17.20;91.40
13697;DHT22;6920;50.080;8.226;2023-05-31T02:11:23;17.20;91.20
13697;DHT22;6920;50.080;8.226;2023-05-31T02:13:51;17.20;91.20
13697;DHT22;6920;50.080;8.226;2023-05-31T02:16:18;17.20;91.10
13697;DHT22;6920;50.080;8.226;2023-05-31T02:18:46;17.10;91.20
13697;DHT22;6920;50.080;8.226;2023-05-31T02:21:13;17.10;91.20
13697;DHT22;6920;50.080;8.226;2023-05-31T02:23:41;17.20;91.40
13697;DHT22;6920;50.080;8.226;2023-05-31T02:26:08;17.00;91.50
13697;DHT22;6920;50.080;8.226;2023-05-31T02:28:36;17.00;91.50
13697;DHT22;6920;50.080;8.226;2023-05-31T02:31:03;17.00;91.80
13697;DHT22;6920;50.080;8.226;2023-05-31T02:33:31;16.90;91.90
13697;DHT22;6920;50.080;8.226;2023-05-31T02:35:59;16.90;91.80
13697;DHT22;6920;50.080;8.226;2023-05-31T02:38:27;16.90;91.90
13697;DHT22;6920;50.080;8.226;2023-05-31T02:40:54;16.70;92.20
13697;DHT22;6920;50.080;8.226;2023-05-31T02:43:21;16.60;92.60
13697;DHT22;6920;50.080;8.226;2023-05-31T02:45:49;16.40;93.20
13697;DHT22;6920;50.080;8.226;2023-05-31T02:48:17;16.20;94.10
13697;DHT22;6920;50.080;8.226;2023-05-31T02:50:45;16.00;94.70
13697;DHT22;6920;50.080;8.226;2023-05-31T02:53:13;15.90;95.20
13697;DHT22;6920;50.080;8.226;2023-05-31T02:55:40;15.80;95.70
13697;DHT22;6920;50.080;8.226;2023-05-31T02:58:10;15.70;96.10
13697;DHT22;6920;50.080;8.226;2023-05-31T03:00:37;15.70;96.40
13697;DHT22;6920;50.080;8.226;2023-05-31T03:03:06;15.60;96.70
13697;DHT22;6920;50.080;8.226;2023-05-31T03:08:01;15.50;97.20
13697;DHT22;6920;50.080;8.226;2023-05-31T03:10:30;15.40;97.70
13697;DHT22;6920;50.080;8.226;2023-05-31T03:12:57;15.50;97.70
13697;DHT22;6920;50.080;8.226;2023-05-31T03:15:25;15.40;97.60
13697;DHT22;6920;50.080;8.226;2023-05-31T03:17:53;15.40;97.60
13697;DHT22;6920;50.080;8.226;2023-05-31T03:20:21;15.50;96.70
13697;DHT22;6920;50.080;8.226;2023-05-31T03:25:17;15.90;95.60
13697;DHT22;6920;50.080;8.226;2023-05-31T03:27:45;16.10;95.00
13697;DHT22;6920;50.080;8.226;2023-05-31T03:30:13;16.10;94.60
13697;DHT22;6920;50.080;8.226;2023-05-31T03:32:40;16.30;94.10
13697;DHT22;6920;50.080;8.226;2023-05-31T03:35:08;16.30;93.50
13697;DHT22;6920;50.080;8.226;2023-05-31T03:37:35;16.40;93.50
13697;DHT22;6920;50.080;8.226;2023-05-31T03:40:03;16.40;93.30
13697;DHT22;6920;50.080;8.226;2023-05-31T03:42:31;16.40;93.20
13697;DHT22;6920;50.080;8.226;2023-05-31T03:45:02;16.40;93.10
13697;DHT22;6920;50.080;8.226;2023-05-31T03:47:30;16.40;93.10
13697;DHT22;6920;50.080;8.226;2023-05-31T03:50:00;16.50;93.10
13697;DHT22;6920;50.080;8.226;2023-05-31T03:52:27;16.50;92.80
13697;DHT22;6920;50.080;8.226;2023-05-31T03:54:55;16.50;92.60
13697;DHT22;6920;50.080;8.226;2023-05-31T03:57:23;16.60;92.40
13697;DHT22;6920;50.080;8.226;2023-05-31T03:59:52;16.60;92.30
13697;DHT22;6920;50.080;8.226;2023-05-31T04:02:21;16.60;92.50
13697;DHT22;6920;50.080;8.226;2023-05-31T04:04:48;16.70;92.20
13697;DHT22;6920;50.080;8.226;2023-05-31T04:07:16;16.60;92.30
13697;DHT22;6920;50.080;8.226;2023-05-31T04:09:43;16.70;92.30
13697;DHT22;6920;50.080;8.226;2023-05-31T04:12:10;16.70;92.30
13697;DHT22;6920;50.080;8.226;2023-05-31T04:14:37;16.70;92.20
13697;DHT22;6920;50.080;8.226;2023-05-31T04:17:04;16.70;92.20
13697;DHT22;6920;50.080;8.226;2023-05-31T04:19:33;16.70;92.20
13697;DHT22;6920;50.080;8.226;2023-05-31T04:22:00;16.70;92.20
13697;DHT22;6920;50.080;8.226;2023-05-31T04:26:55;16.80;92.00
13697;DHT22;6920;50.080;8.226;2023-05-31T04:29:22;16.80;92.00
13697;DHT22;6920;50.080;8.226;2023-05-31T04:31:51;16.80;91.90
13697;DHT22;6920;50.080;8.226;2023-05-31T04:34:18;16.80;91.90
13697;DHT22;6920;50.080;8.226;2023-05-31T04:36:47;17.00;92.00
13697;DHT22;6920;50.080;8.226;2023-05-31T04:39:15;16.90;92.10
13697;DHT22;6920;50.080;8.226;2023-05-31T04:41:42;16.90;92.20
13697;DHT22;6920;50.080;8.226;2023-05-31T04:44:09;17.00;91.90
13697;DHT22;6920;50.080;8.226;2023-05-31T04:46:37;17.00;91.80
13697;DHT22;6920;50.080;8.226;2023-05-31T04:49:06;17.00;91.90
13697;DHT22;6920;50.080;8.226;2023-05-31T04:51:33;17.00;91.60
13697;DHT22;6920;50.080;8.226;2023-05-31T04:54:03;17.10;91.50
13697;DHT22;6920;50.080;8.226;2023-05-31T04:56:31;17.10;91.60
13697;DHT22;6920;50.080;8.226;2023-05-31T04:58:58;17.10;91.80
13697;DHT22;6920;50.080;8.226;2023-05-31T05:01:25;17.10;91.30
13697;DHT22;6920;50.080;8.226;2023-05-31T05:03:53;17.20;91.50
13697;DHT22;6920;50.080;8.226;2023-05-31T05:06:20;17.30;91.10
13697;DHT22;6920;50.080;8.226;2023-05-31T05:08:48;17.40;91.00
13697;DHT22;6920;50.080;8.226;2023-05-31T05:11:16;17.40;90.80
13697;DHT22;6920;50.080;8.226;2023-05-31T05:13:43;17.40;90.80
13697;DHT22;6920;50.080;8.226;2023-05-31T05:16:10;17.50;90.80
13697;DHT22;6920;50.080;8.226;2023-05-31T05:23:35;17.70;90.50
13697;DHT22;6920;50.080;8.226;2023-05-31T05:26:03;17.70;90.40
13697;DHT22;6920;50.080;8.226;2023-05-31T05:28:32;17.80;90.10
13697;DHT22;6920;50.080;8.226;2023-05-31T05:30:59;17.80;90.10
13697;DHT22;6920;50.080;8.226;2023-05-31T05:33:26;17.90;90.10
13697;DHT22;6920;50.080;8.226;2023-05-31T05:35:54;18.00;89.60
13697;DHT22;6920;50.080;8.226;2023-05-31T05:38:21;18.10;89.50
13697;DHT22;6920;50.080;8.226;2023-05-31T05:43:16;18.20;88.90
13697;DHT22;6920;50.080;8.226;2023-05-31T05:45:44;18.30;88.70
13697;DHT22;6920;50.080;8.226;2023-05-31T05:48:11;18.40;88.20
13697;DHT22;6920;50.080;8.226;2023-05-31T05:50:41;18.40;87.20
13697;DHT22;6920;50.080;8.226;2023-05-31T05:53:09;18.60;87.10
13697;DHT22;6920;50.080;8.226;2023-05-31T05:55:37;18.60;86.80
13697;DHT22;6920;50.080;8.226;2023-05-31T05:58:04;18.80;86.40
13697;DHT22;6920;50.080;8.226;2023-05-31T06:03:00;19.00;85.50
13697;DHT22;6920;50.080;8.226;2023-05-31T06:05:27;19.10;83.90
13697;DHT22;6920;50.080;8.226;2023-05-31T06:10:22;19.20;82.90
13697;DHT22;6920;50.080;8.226;2023-05-31T06:12:50;19.20;83.80
13697;DHT22;6920;50.080;8.226;2023-05-31T06:15:21;19.50;81.30
13697;DHT22;6920;50.080;8.226;2023-05-31T06:17:52;19.70;81.10
13697;DHT22;6920;50.080;8.226;2023-05-31T06:20:25;19.90;81.10
13697;DHT22;6920;50.080;8.226;2023-05-31T06:22:54;20.10;80.10
13697;DHT22;6920;50.080;8.226;2023-05-31T06:25:23;20.20;80.40
13697;DHT22;6920;50.080;8.226;2023-05-31T06:30:18;21.40;77.30
13697;DHT22;6920;50.080;8.226;2023-05-31T06:32:46;21.50;77.30
13697;DHT22;6920;50.080;8.226;2023-05-31T06:35:13;22.30;76.40
13697;DHT22;6920;50.080;8.226;2023-05-31T06:37:42;23.00;75.60
13697;DHT22;6920;50.080;8.226;2023-05-31T06:40:10;23.10;74.80
13697;DHT22;6920;50.080;8.226;2023-05-31T06:42:37;22.70;74.10
13697;DHT22;6920;50.080;8.226;2023-05-31T06:45:07;22.30;75.20
13697;DHT22;6920;50.080;8.226;2023-05-31T06:47:37;22.50;74.90
13697;DHT22;6920;50.080;8.226;2023-05-31T06:50:05;22.40;74.80
13697;DHT22;6920;50.080;8.226;2023-05-31T06:52:32;22.10;74.30
13697;DHT22;6920;50.080;8.226;2023-05-31T06:55:00;22.40;75.00
13697;DHT22;6920;50.080;8.226;2023-05-31T06:57:28;22.70;73.70
13697;DHT22;6920;50.080;8.226;2023-05-31T07:02:22;21.60;74.80
13697;DHT22;6920;50.080;8.226;2023-05-31T07:04:50;21.80;75.50
13697;DHT22;6920;50.080;8.226;2023-05-31T07:09:44;22.00;75.20
13697;DHT22;6920;50.080;8.226;2023-05-31T07:12:13;22.30;74.10
13697;DHT22;6920;50.080;8.226;2023-05-31T07:14:40;22.40;73.90
13697;DHT22;6920;50.080;8.226;2023-05-31T07:17:07;22.50;73.40
13697;DHT22;6920;50.080;8.226;2023-05-31T07:19:43;22.90;73.50
13697;DHT22;6920;50.080;8.226;2023-05-31T07:22:10;22.20;73.10
13697;DHT22;6920;50.080;8.226;2023-05-31T07:24:37;22.50;74.00
13697;DHT22;6920;50.080;8.226;2023-05-31T07:27:07;22.40;73.10
13697;DHT22;6920;50.080;8.226;2023-05-31T07:29:36;22.70;72.70
13697;DHT22;6920;50.080;8.226;2023-05-31T07:32:03;23.10;71.60
13697;DHT22;6920;50.080;8.226;2023-05-31T07:34:34;22.70;71.70
13697;DHT22;6920;50.080;8.226;2023-05-31T07:37:12;22.80;72.40
13697;DHT22;6920;50.080;8.226;2023-05-31T07:39:40;23.10;72.40
13697;DHT22;6920;50.080;8.226;2023-05-31T07:42:10;23.20;70.20
13697;DHT22;6920;50.080;8.226;2023-05-31T07:44:45;23.30;70.60
13697;DHT22;6920;50.080;8.226;2023-05-31T07:49:44;23.10;71.20
13697;DHT22;6920;50.080;8.226;2023-05-31T07:52:17;23.00;70.20
13697;DHT22;6920;50.080;8.226;2023-05-31T07:54:50;23.00;70.40
13697;DHT22;6920;50.080;8.226;2023-05-31T07:57:20;24.00;69.50
13697;DHT22;6920;50.080;8.226;2023-05-31T07:59:51;23.20;69.90
13697;DHT22;6920;50.080;8.226;2023-05-31T08:02:19;24.10;70.60
13697;DHT22;6920;50.080;8.226;2023-05-31T08:04:48;24.60;68.00
13697;DHT22;6920;50.080;8.226;2023-05-31T08:07:21;24.40;67.80
13697;DHT22;6920;50.080;8.226;2023-05-31T08:09:48;23.90;68.70
13697;DHT22;6920;50.080;8.226;2023-05-31T08:14:45;24.30;68.50
13697;DHT22;6920;50.080;8.226;2023-05-31T08:17:14;25.10;67.90
13697;DHT22;6920;50.080;8.226;2023-05-31T08:19:41;24.50;67.40
13697;DHT22;6920;50.080;8.226;2023-05-31T08:24:36;23.60;68.60
13697;DHT22;6920;50.080;8.226;2023-05-31T08:27:04;23.90;69.20
13697;DHT22;6920;50.080;8.226;2023-05-31T08:29:34;24.40;68.60
13697;DHT22;6920;50.080;8.226;2023-05-31T08:32:04;24.80;68.60
13697;DHT22;6920;50.080;8.226;2023-05-31T08:34:36;25.10;67.30
13697;DHT22;6920;50.080;8.226;2023-05-31T08:37:04;24.90;67.70
13697;DHT22;6920;50.080;8.226;2023-05-31T08:39:31;25.30;67.50
13697;DHT22;6920;50.080;8.226;2023-05-31T08:42:02;25.00;67.20
13697;DHT22;6920;50.080;8.226;2023-05-31T08:44:34;25.00;68.30
13697;DHT22;6920;50.080;8.226;2023-05-31T08:47:12;25.30;67.60
13697;DHT22;6920;50.080;8.226;2023-05-31T08:49:44;25.10;68.50
13697;DHT22;6920;50.080;8.226;2023-05-31T08:54:49;25.00;68.70
13697;DHT22;6920;50.080;8.226;2023-05-31T08:57:37;25.50;67.60
13697;DHT22;6920;50.080;8.226;2023-05-31T09:00:11;25.70;66.50
13697;DHT22;6920;50.080;8.226;2023-05-31T09:02:43;25.60;66.70
13697;DHT22;6920;50.080;8.226;2023-05-31T09:05:21;25.30;66.70
13697;DHT22;6920;50.080;8.226;2023-05-31T09:07:50;25.70;66.80
13697;DHT22;6920;50.080;8.226;2023-05-31T09:12:50;25.50;66.70
13697;DHT22;6920;50.080;8.226;2023-05-31T09:15:22;25.50;66.10
13697;DHT22;6920;50.080;8.226;2023-05-31T09:17:50;25.60;66.80
13697;DHT22;6920;50.080;8.226;2023-05-31T09:20:32;26.00;66.10
13697;DHT22;6920;50.080;8.226;2023-05-31T09:23:02;25.80;64.90
13697;DHT22;6920;50.080;8.226;2023-05-31T09:25:43;26.00;65.90
13697;DHT22;6920;50.080;8.226;2023-05-31T09:30:38;25.60;66.20
13697;DHT22;6920;50.080;8.226;2023-05-31T09:33:06;25.00;67.40
13697;DHT22;6920;50.080;8.226;2023-05-31T09:35:35;25.80;66.90
13697;DHT22;6920;50.080;8.226;2023-05-31T09:38:06;26.10;66.60
13697;DHT22;6920;50.080;8.226;2023-05-31T09:43:01;26.10;66.30
13697;DHT22;6920;50.080;8.226;2023-05-31T09:45:28;26.20;65.40
13697;DHT22;6920;50.080;8.226;2023-05-31T09:47:55;26.30;65.50
13697;DHT22;6920;50.080;8.226;2023-05-31T09:50:23;25.10;68.00
13697;DHT22;6920;50.080;8.226;2023-05-31T09:53:00;25.40;66.10
13697;DHT22;6920;50.080;8.226;2023-05-31T09:55:39;25.80;66.40
13697;DHT22;6920;50.080;8.226;2023-05-31T10:00:34;26.40;66.50
13697;DHT22;6920;50.080;8.226;2023-05-31T10:03:04;26.60;64.30
13697;DHT22;6920;50.080;8.226;2023-05-31T10:05:32;26.70;64.30
13697;DHT22;6920;50.080;8.226;2023-05-31T10:08:01;26.40;64.40
13697;DHT22;6920;50.080;8.226;2023-05-31T10:10:30;26.40;65.00
13697;DHT22;6920;50.080;8.226;2023-05-31T10:13:01;26.70;64.30
13697;DHT22;6920;50.080;8.226;2023-05-31T10:15:34;26.90;63.50
13697;DHT22;6920;50.080;8.226;2023-05-31T10:18:13;26.50;64.00
13697;DHT22;6920;50.080;8.226;2023-05-31T10:20:44;27.20;63.80
13697;DHT22;6920;50.080;8.226;2023-05-31T10:23:22;27.00;62.40
13697;DHT22;6920;50.080;8.226;2023-05-31T10:25:57;27.40;62.70
13697;DHT22;6920;50.080;8.226;2023-05-31T10:28:27;26.50;63.80
13697;DHT22;6920;50.080;8.226;2023-05-31T10:30:58;26.80;64.60
13697;DHT22;6920;50.080;8.226;2023-05-31T10:33:28;27.30;63.70
13697;DHT22;6920;50.080;8.226;2023-05-31T10:35:57;26.50;64.20
13697;DHT22;6920;50.080;8.226;2023-05-31T10:38:36;27.20;63.00
13697;DHT22;6920;50.080;8.226;2023-05-31T10:41:13;27.10;61.90
13697;DHT22;6920;50.080;8.226;2023-05-31T10:43:46;26.70;62.00
13697;DHT22;6920;50.080;8.226;2023-05-31T10:46:19;26.50;61.60
13697;DHT22;6920;50.080;8.226;2023-05-31T10:48:54;26.90;61.90
13697;DHT22;6920;50.080;8.226;2023-05-31T10:51:37;27.40;62.10
13697;DHT22;6920;50.080;8.226;2023-05-31T10:54:08;27.30;60.00
13697;DHT22;6920;50.080;8.226;2023-05-31T10:56:36;27.40;59.90
13697;DHT22;6920;50.080;8.226;2023-05-31T10:59:08;27.70;59.40
13697;DHT22;6920;50.080;8.226;2023-05-31T11:01:38;27.80;62.00
13697;DHT22;6920;50.080;8.226;2023-05-31T11:04:19;27.60;60.40
13697;DHT22;6920;50.080;8.226;2023-05-31T11:06:49;27.50;61.20
13697;DHT22;6920;50.080;8.226;2023-05-31T11:09:21;27.80;61.00
13697;DHT22;6920;50.080;8.226;2023-05-31T11:11:52;27.60;61.90
13697;DHT22;6920;50.080;8.226;2023-05-31T11:14:32;27.70;60.40
13697;DHT22;6920;50.080;8.226;2023-05-31T11:17:15;27.90;60.60
13697;DHT22;6920;50.080;8.226;2023-05-31T11:19:51;27.30;59.20
13697;DHT22;6920;50.080;8.226;2023-05-31T11:22:22;27.70;59.80
13697;DHT22;6920;50.080;8.226;2023-05-31T11:24:54;28.30;59.50
13697;DHT22;6920;50.080;8.226;2023-05-31T11:27:34;28.50;58.30
13697;DHT22;6920;50.080;8.226;2023-05-31T11:30:03;28.20;57.70
13697;DHT22;6920;50.080;8.226;2023-05-31T11:33:13;28.70;58.60
13697;DHT22;6920;50.080;8.226;2023-05-31T11:38:13;28.50;59.20
13697;DHT22;6920;50.080;8.226;2023-05-31T11:40:44;27.70;60.40
13697;DHT22;6920;50.080;8.226;2023-05-31T11:43:15;28.10;61.10
13697;DHT22;6920;50.080;8.226;2023-05-31T11:45:51;28.10;61.00
13697;DHT22;6920;50.080;8.226;2023-05-31T11:48:41;27.70;61.40
13697;DHT22;6920;50.080;8.226;2023-05-31T11:51:11;28.20;61.30
13697;DHT22;6920;50.080;8.226;2023-05-31T11:56:09;27.90;61.10
13697;DHT22;6920;50.080;8.226;2023-05-31T11:58:38;28.40;61.30
13697;DHT22;6920;50.080;8.226;2023-05-31T12:01:06;28.40;58.80
13697;DHT22;6920;50.080;8.226;2023-05-31T12:03:39;28.30;58.50
13697;DHT22;6920;50.080;8.226;2023-05-31T12:06:07;28.00;57.30
13697;DHT22;6920;50.080;8.226;2023-05-31T12:08:35;28.10;57.50
13697;DHT22;6920;50.080;8.226;2023-05-31T12:11:04;28.10;58.20
13697;DHT22;6920;50.080;8.226;2023-05-31T12:13:35;28.90;58.90
13697;DHT22;6920;50.080;8.226;2023-05-31T12:16:05;28.70;59.70
13697;DHT22;6920;50.080;8.226;2023-05-31T12:18:34;28.60;59.60
13697;DHT22;6920;50.080;8.226;2023-05-31T12:21:06;29.00;61.10
13697;DHT22;6920;50.080;8.226;2023-05-31T12:23:51;28.60;59.70
13697;DHT22;6920;50.080;8.226;2023-05-31T12:28:49;28.60;60.30
13697;DHT22;6920;50.080;8.226;2023-05-31T12:31:21;28.50;60.50
13697;DHT22;6920;50.080;8.226;2023-05-31T12:33:57;28.50;60.80
13697;DHT22;6920;50.080;8.226;2023-05-31T12:36:26;29.10;60.40
13697;DHT22;6920;50.080;8.226;2023-05-31T12:38:53;28.60;60.50
13697;DHT22;6920;50.080;8.226;2023-05-31T12:41:21;28.60;61.50
13697;DHT22;6920;50.080;8.226;2023-05-31T12:43:50;29.10;60.60
13697;DHT22;6920;50.080;8.226;2023-05-31T12:46:19;29.20;60.50
13697;DHT22;6920;50.080;8.226;2023-05-31T12:48:46;28.80;60.10
13697;DHT22;6920;50.080;8.226;2023-05-31T12:51:20;28.90;60.10
13697;DHT22;6920;50.080;8.226;2023-05-31T12:53:50;28.80;60.70
13697;DHT22;6920;50.080;8.226;2023-05-31T12:58:50;28.60;60.20
13697;DHT22;6920;50.080;8.226;2023-05-31T13:01:19;29.00;59.80
13697;DHT22;6920;50.080;8.226;2023-05-31T13:03:46;29.20;59.20
13697;DHT22;6920;50.080;8.226;2023-05-31T13:08:40;28.60;60.10
13697;DHT22;6920;50.080;8.226;2023-05-31T13:11:09;29.00;61.00
13697;DHT22;6920;50.080;8.226;2023-05-31T13:13:39;29.20;59.80
13697;DHT22;6920;50.080;8.226;2023-05-31T13:16:26;29.10;59.10
13697;DHT22;6920;50.080;8.226;2023-05-31T13:18:55;28.00;58.30
13697;DHT22;6920;50.080;8.226;2023-05-31T13:21:22;28.40;59.30
13697;DHT22;6920;50.080;8.226;2023-05-31T13:23:49;28.50;60.80
13697;DHT22;6920;50.080;8.226;2023-05-31T13:28:44;29.10;60.00
13697;DHT22;6920;50.080;8.226;2023-05-31T13:33:40;27.80;60.60
13697;DHT22;6920;50.080;8.226;2023-05-31T13:36:07;28.30;60.00
13697;DHT22;6920;50.080;8.226;2023-05-31T13:38:35;28.80;60.00
13697;DHT22;6920;50.080;8.226;2023-05-31T13:41:02;29.00;59.50
13697;DHT22;6920;50.080;8.226;2023-05-31T13:45:59;29.40;59.40
13697;DHT22;6920;50.080;8.226;2023-05-31T13:48:27;28.90;60.30
13697;DHT22;6920;50.080;8.226;2023-05-31T13:50:56;29.40;60.00
13697;DHT22;6920;50.080;8.226;2023-05-31T13:53:24;29.10;60.50
13697;DHT22;6920;50.080;8.226;2023-05-31T13:55:51;28.90;59.50
13697;DHT22;6920;50.080;8.226;2023-05-31T14:00:47;29.00;59.30
13697;DHT22;6920;50.080;8.226;2023-05-31T14:03:15;28.90;59.90
13697;DHT22;6920;50.080;8.226;2023-05-31T14:05:46;28.80;59.50
13697;DHT22;6920;50.080;8.226;2023-05-31T14:08:17;28.70;58.40
13697;DHT22;6920;50.080;8.226;2023-05-31T14:10:45;28.40;58.70
13697;DHT22;6920;50.080;8.226;2023-05-31T14:13:12;28.40;59.50
13697;DHT22;6920;50.080;8.226;2023-05-31T14:15:40;28.00;59.70
13697;DHT22;6920;50.080;8.226;2023-05-31T14:18:09;28.10;61.10
13697;DHT22;6920;50.080;8.226;2023-05-31T14:20:37;28.70;59.60
13697;DHT22;6920;50.080;8.226;2023-05-31T14:23:09;28.80;59.40
13697;DHT22;6920;50.080;8.226;2023-05-31T14:25:38;28.80;58.80
13697;DHT22;6920;50.080;8.226;2023-05-31T14:28:05;28.00;59.20
13697;DHT22;6920;50.080;8.226;2023-05-31T14:33:00;28.30;60.20
13697;DHT22;6920;50.080;8.226;2023-05-31T14:35:29;28.30;60.10
13697;DHT22;6920;50.080;8.226;2023-05-31T14:37:56;28.40;60.00
13697;DHT22;6920;50.080;8.226;2023-05-31T14:40:25;28.90;59.70
13697;DHT22;6920;50.080;8.226;2023-05-31T14:42:55;29.10;60.70
13697;DHT22;6920;50.080;8.226;2023-05-31T14:45:23;29.30;59.40
13697;DHT22;6920;50.080;8.226;2023-05-31T14:50:21;29.00;60.40
13697;DHT22;6920;50.080;8.226;2023-05-31T14:52:48;29.20;59.70
13697;DHT22;6920;50.080;8.226;2023-05-31T14:55:19;29.30;59.90
13697;DHT22;6920;50.080;8.226;2023-05-31T15:00:17;29.20;60.20
13697;DHT22;6920;50.080;8.226;2023-05-31T15:02:46;28.80;60.20
13697;DHT22;6920;50.080;8.226;2023-05-31T15:05:14;28.90;60.30
13697;DHT22;6920;50.080;8.226;2023-05-31T15:07:44;29.00;60.80
13697;DHT22;6920;50.080;8.226;2023-05-31T15:10:13;29.00;61.60
13697;DHT22;6920;50.080;8.226;2023-05-31T15:12:41;28.80;61.00
13697;DHT22;6920;50.080;8.226;2023-05-31T15:15:13;28.30;59.70
13697;DHT22;6920;50.080;8.226;2023-05-31T15:17:43;28.40;60.30
13697;DHT22;6920;50.080;8.226;2023-05-31T15:22:39;28.00;60.10
13697;DHT22;6920;50.080;8.226;2023-05-31T15:25:07;28.30;60.40
13697;DHT22;6920;50.080;8.226;2023-05-31T15:27:34;27.90;60.30
13697;DHT22;6920;50.080;8.226;2023-05-31T15:30:02;28.30;60.90
13697;DHT22;6920;50.080;8.226;2023-05-31T15:34:58;28.50;60.50
13697;DHT22;6920;50.080;8.226;2023-05-31T15:37:25;28.40;61.10
13697;DHT22;6920;50.080;8.226;2023-05-31T15:39:53;28.30;62.40
13697;DHT22;6920;50.080;8.226;2023-05-31T15:44:48;28.50;62.40
13697;DHT22;6920;50.080;8.226;2023-05-31T15:47:15;28.70;61.80
13697;DHT22;6920;50.080;8.226;2023-05-31T15:49:42;28.80;61.80
13697;DHT22;6920;50.080;8.226;2023-05-31T15:52:11;28.40;62.10
13697;DHT22;6920;50.080;8.226;2023-05-31T15:57:05;27.70;63.20
13697;DHT22;6920;50.080;8.226;2023-05-31T15:59:33;27.60;63.10
13697;DHT22;6920;50.080;8.226;2023-05-31T16:02:00;27.50;63.80
13697;DHT22;6920;50.080;8.226;2023-05-31T16:04:28;27.40;63.60
13697;DHT22;6920;50.080;8.226;2023-05-31T16:09:23;27.30;64.00
13697;DHT22;6920;50.080;8.226;2023-05-31T16:11:51;27.10;63.10
13697;DHT22;6920;50.080;8.226;2023-05-31T16:14:18;27.10;63.20
13697;DHT22;6920;50.080;8.226;2023-05-31T16:16:46;26.70;63.90
13697;DHT22;6920;50.080;8.226;2023-05-31T16:21:43;26.80;64.50
13697;DHT22;6920;50.080;8.226;2023-05-31T16:24:10;26.60;64.30
13697;DHT22;6920;50.080;8.226;2023-05-31T16:26:39;26.50;64.80
13697;DHT22;6920;50.080;8.226;2023-05-31T16:29:07;26.40;65.10
13697;DHT22;6920;50.080;8.226;2023-05-31T16:31:34;26.30;65.60
13697;DHT22;6920;50.080;8.226;2023-05-31T16:34:01;26.20;65.60
13697;DHT22;6920;50.080;8.226;2023-05-31T16:38:58;26.10;65.60
13697;DHT22;6920;50.080;8.226;2023-05-31T16:44:06;25.90;65.70
13697;DHT22;6920;50.080;8.226;2023-05-31T16:46:35;25.80;65.80
13697;DHT22;6920;50.080;8.226;2023-05-31T16:49:03;25.80;66.00
13697;DHT22;6920;50.080;8.226;2023-05-31T16:51:34;25.80;66.30
13697;DHT22;6920;50.080;8.226;2023-05-31T16:54:04;25.70;65.90
13697;DHT22;6920;50.080;8.226;2023-05-31T16:56:33;25.90;66.40
13697;DHT22;6920;50.080;8.226;2023-05-31T16:59:06;25.80;66.60
13697;DHT22;6920;50.080;8.226;2023-05-31T17:01:35;25.70;66.60
13697;DHT22;6920;50.080;8.226;2023-05-31T17:04:05;25.70;67.20
13697;DHT22;6920;50.080;8.226;2023-05-31T17:06:33;25.50;67.00
13697;DHT22;6920;50.080;8.226;2023-05-31T17:09:03;25.30;66.70
13697;DHT22;6920;50.080;8.226;2023-05-31T17:11:33;25.30;67.10
13697;DHT22;6920;50.080;8.226;2023-05-31T17:14:08;25.30;67.40
13697;DHT22;6920;50.080;8.226;2023-05-31T17:16:48;25.30;67.20
13697;DHT22;6920;50.080;8.226;2023-05-31T17:19:23;25.10;67.70
13697;DHT22;6920;50.080;8.226;2023-05-31T17:24:24;25.10;67.90
13697;DHT22;6920;50.080;8.226;2023-05-31T17:26:52;25.20;68.00
13697;DHT22;6920;50.080;8.226;2023-05-31T17:29:25;25.20;68.20
13697;DHT22;6920;50.080;8.226;2023-05-31T17:31:55;25.10;68.30
13697;DHT22;6920;50.080;8.226;2023-05-31T17:34:23;25.10;68.50
13697;DHT22;6920;50.080;8.226;2023-05-31T17:37:01;25.00;68.20
13697;DHT22;6920;50.080;8.226;2023-05-31T17:39:42;25.00;68.30
13697;DHT22;6920;50.080;8.226;2023-05-31T17:42:10;24.90;68.20
13697;DHT22;6920;50.080;8.226;2023-05-31T17:44:40;24.90;68.90
13697;DHT22;6920;50.080;8.226;2023-05-31T17:47:10;24.70;68.70
13697;DHT22;6920;50.080;8.226;2023-05-31T17:49:40;24.70;68.50
13697;DHT22;6920;50.080;8.226;2023-05-31T17:52:08;24.60;68.80
13697;DHT22;6920;50.080;8.226;2023-05-31T17:54:37;24.60;69.00